Time;durP1;ratioP1;P1;durP2;ratioP2;P2;SDS_P1;SDS_P2;PMS_P1;PMS_P2;Temp;Humidity;BMP_temperature;BMP_pressure;BME280_temperature;BME280_humidity;BME280_pressure;Samples;Min_cycle;Max_cycle;Signal;HPM_P1;HPM_P2
2022/11/11 00:02:15;;;;;;;16.73;9.57;;;14.20;90.40;;;;;;5067978;28;20608;-92
2022/11/11 00:04:45;;;;;;;17.00;8.80;;;14.20;90.20;;;;;;5065727;28;20739;-93
2022/11/11 00:07:16;;;;;;;17.47;9.53;;;14.20;90.10;;;;;;5059070;28;20214;-93
2022/11/11 00:09:47;;;;;;;18.73;9.40;;;14.20;90.40;;;;;;5075955;28;20292;-92
2022/11/11 00:12:21;;;;;;;24.27;9.37;;;14.20;90.20;;;;;;5057811;28;20204;-94
2022/11/11 00:14:52;;;;;;;15.37;8.77;;;14.20;90.40;;;;;;5075679;28;20554;-93
2022/11/11 00:25:41;;;;;;;18.33;9.27;;;14.20;90.20;;;;;;5076622;28;20263;-94
2022/11/11 00:28:13;;;;;;;16.03;9.23;;;14.20;90.20;;;;;;5073500;28;20255;-94
2022/11/11 00:30:44;;;;;;;20.27;9.53;;;14.20;90.40;;;;;;5073692;28;20291;-95
2022/11/11 00:33:11;;;;;;;18.67;8.67;;;14.20;90.50;;;;;;5071621;28;20254;-94
2022/11/11 00:36:08;;;;;;;17.13;9.67;;;14.20;90.20;;;;;;5076092;28;20646;-93
2022/11/11 00:38:45;;;;;;;15.90;9.20;;;14.10;90.30;;;;;;5063811;28;20212;-93
2022/11/11 00:41:19;;;;;;;22.10;9.80;;;14.20;90.40;;;;;;5077543;28;20198;-94
2022/11/11 00:43:49;;;;;;;21.73;10.57;;;14.20;90.40;;;;;;5077336;28;20205;-94
2022/11/11 00:51:56;;;;;;;18.10;9.93;;;14.10;90.50;;;;;;5080558;28;20231;-94
2022/11/11 00:54:39;;;;;;;19.57;10.07;;;14.10;90.40;;;;;;5070138;28;20203;-95
2022/11/11 00:57:08;;;;;;;17.57;9.17;;;14.10;90.60;;;;;;5079293;28;20440;-92
2022/11/11 00:59:41;;;;;;;17.67;8.33;;;14.10;90.50;;;;;;5073572;28;20209;-94
2022/11/11 01:02:08;;;;;;;22.80;10.23;;;14.10;90.60;;;;;;5075147;28;20211;-94
2022/11/11 01:04:43;;;;;;;16.07;8.60;;;14.10;90.40;;;;;;5071873;28;20186;-94
2022/11/11 01:07:14;;;;;;;20.70;10.17;;;14.10;90.70;;;;;;5067785;28;20213;-93
2022/11/11 01:09:41;;;;;;;21.13;9.47;;;14.10;90.50;;;;;;5062792;28;20212;-93
2022/11/11 01:12:12;;;;;;;28.40;12.40;;;14.10;90.40;;;;;;5061607;28;20221;-92
2022/11/11 01:14:49;;;;;;;17.40;10.20;;;14.10;90.60;;;;;;5066086;28;20212;-93
2022/11/11 01:17:21;;;;;;;16.83;9.77;;;14.10;90.80;;;;;;5060133;28;20214;-93
2022/11/11 01:19:48;;;;;;;18.07;9.67;;;14.10;90.70;;;;;;5066975;28;20221;-93
2022/11/11 01:22:21;;;;;;;19.53;10.40;;;14.00;90.40;;;;;;5073272;28;20213;-94
2022/11/11 01:24:49;;;;;;;20.73;10.27;;;14.00;90.70;;;;;;5071516;28;20209;-91
2022/11/11 01:27:17;;;;;;;21.17;11.67;;;14.00;90.60;;;;;;5070736;28;20199;-93
2022/11/11 01:29:50;;;;;;;17.20;10.47;;;14.00;90.60;;;;;;5083469;28;20220;-92
2022/11/11 01:32:19;;;;;;;21.03;10.27;;;14.00;90.80;;;;;;5077105;28;20204;-91
2022/11/11 01:34:52;;;;;;;17.97;10.30;;;14.00;90.90;;;;;;5081967;28;20218;-94
2022/11/11 01:37:22;;;;;;;20.07;11.20;;;14.00;90.60;;;;;;5079962;28;20217;-94
2022/11/11 01:39:54;;;;;;;23.73;12.43;;;14.00;90.50;;;;;;5065569;28;20204;-94
2022/11/11 01:42:22;;;;;;;20.27;10.90;;;14.00;90.50;;;;;;5077272;28;20238;-94
2022/11/11 01:45:03;;;;;;;19.73;12.03;;;14.00;90.60;;;;;;5071478;28;20209;-95
2022/11/11 01:49:17;;;;;;;27.17;13.77;;;13.90;90.70;;;;;;5060409;28;20206;-92
2022/11/11 01:50:22;;;;;;;21.90;12.47;;;13.90;90.50;;;;;;5066453;28;20301;-93
2022/11/11 01:52:50;;;;;;;26.50;13.63;;;13.90;90.60;;;;;;5067530;28;20972;-94
2022/11/11 01:55:25;;;;;;;22.27;13.63;;;13.90;90.80;;;;;;5073291;28;20205;-95
2022/11/11 01:58:00;;;;;;;26.43;13.33;;;13.90;90.80;;;;;;5069996;28;20216;-93
2022/11/11 02:00:34;;;;;;;26.17;13.90;;;13.80;90.70;;;;;;5070723;28;20203;-93
2022/11/11 02:03:11;;;;;;;24.90;13.10;;;13.80;90.70;;;;;;5078330;28;20210;-92
2022/11/11 02:05:45;;;;;;;25.20;13.43;;;13.90;90.80;;;;;;5066940;28;20649;-92
2022/11/11 02:08:31;;;;;;;20.17;12.90;;;13.80;90.60;;;;;;5067621;28;20203;-93
2022/11/11 02:11:03;;;;;;;22.43;13.87;;;13.80;90.80;;;;;;5068097;28;20224;-94
2022/11/11 02:16:23;;;;;;;23.93;13.50;;;13.80;90.70;;;;;;5069412;28;20360;-93
2022/11/11 02:18:53;;;;;;;25.40;14.93;;;13.80;90.90;;;;;;5068787;28;20962;-93
2022/11/11 02:21:30;;;;;;;29.23;14.73;;;13.70;90.90;;;;;;5063682;28;20235;-94
2022/11/11 02:24:09;;;;;;;21.30;13.07;;;13.70;91.10;;;;;;5064682;28;20687;-93
2022/11/11 02:26:49;;;;;;;29.83;15.53;;;13.70;91.10;;;;;;5059475;28;20300;-94
2022/11/11 02:29:21;;;;;;;26.50;14.57;;;13.70;91.10;;;;;;5058626;28;20197;-94
2022/11/11 02:31:58;;;;;;;21.33;13.90;;;13.70;91.10;;;;;;5064504;28;20710;-93
2022/11/11 02:34:30;;;;;;;22.57;14.27;;;13.70;90.90;;;;;;5060505;28;20209;-93
2022/11/11 02:37:01;;;;;;;24.10;14.00;;;13.60;91.20;;;;;;5077330;28;20212;-93
2022/11/11 02:39:45;;;;;;;27.27;15.07;;;13.70;91.10;;;;;;5073213;28;20298;-93
2022/11/11 02:42:24;;;;;;;22.37;13.87;;;13.60;91.20;;;;;;5071096;28;20758;-94
2022/11/11 02:44:57;;;;;;;28.10;14.60;;;13.60;91.10;;;;;;5064331;28;20207;-93
2022/11/11 02:47:29;;;;;;;24.00;13.37;;;13.70;90.80;;;;;;5057290;28;20212;-94
2022/11/11 02:50:00;;;;;;;22.50;12.33;;;13.60;91.00;;;;;;5072792;28;20211;-93
2022/11/11 02:52:33;;;;;;;20.00;12.17;;;13.60;91.00;;;;;;5066145;28;20561;-94
2022/11/11 02:55:05;;;;;;;22.50;12.97;;;13.60;91.00;;;;;;5063729;28;20707;-93
2022/11/11 02:57:36;;;;;;;25.10;13.27;;;13.60;91.00;;;;;;5063466;28;20255;-93
2022/11/11 03:00:05;;;;;;;24.73;13.57;;;13.60;91.00;;;;;;5080529;28;20203;-93
2022/11/11 03:02:39;;;;;;;21.67;13.13;;;13.60;90.90;;;;;;5062235;28;20208;-93
2022/11/11 03:05:23;;;;;;;19.37;13.67;;;13.60;91.00;;;;;;5071204;28;20202;-94
2022/11/11 03:07:58;;;;;;;22.77;13.53;;;13.60;91.00;;;;;;5073549;28;20650;-93
2022/11/11 03:10:32;;;;;;;26.10;14.30;;;13.60;90.80;;;;;;5059900;28;20215;-94
2022/11/11 03:13:00;;;;;;;21.43;13.30;;;13.60;91.00;;;;;;5061418;28;20204;-93
2022/11/11 03:15:34;;;;;;;29.80;16.17;;;13.60;90.70;;;;;;5071408;28;20193;-93
2022/11/11 03:18:00;;;;;;;23.97;14.10;;;13.50;90.90;;;;;;5064573;28;20249;-93
2022/11/11 03:23:24;;;;;;;19.83;13.33;;;13.50;91.20;;;;;;5078245;28;20267;-93
2022/11/11 03:26:09;;;;;;;22.37;14.60;;;13.50;90.70;;;;;;5061529;28;20235;-94
2022/11/11 03:28:42;;;;;;;21.80;14.40;;;13.50;91.00;;;;;;5068824;28;20205;-93
2022/11/11 03:31:10;;;;;;;22.37;15.27;;;13.50;91.00;;;;;;5057890;28;20204;-92
2022/11/11 03:33:41;;;;;;;26.57;13.87;;;13.40;90.80;;;;;;5064695;28;20229;-94
2022/11/11 03:36:10;;;;;;;24.17;14.97;;;13.40;91.00;;;;;;5073399;28;20207;-94
2022/11/11 03:38:41;;;;;;;20.33;13.70;;;13.40;91.10;;;;;;5058735;28;20211;-94
2022/11/11 03:41:17;;;;;;;23.80;14.40;;;13.30;91.00;;;;;;5069581;28;20229;-94
2022/11/11 03:43:47;;;;;;;25.33;14.73;;;13.30;91.10;;;;;;5068665;28;20213;-93
2022/11/11 03:46:17;;;;;;;25.73;14.73;;;13.30;91.10;;;;;;5072652;28;20210;-94
2022/11/11 03:48:47;;;;;;;19.97;13.57;;;13.40;91.00;;;;;;5064008;28;20292;-93
2022/11/11 03:51:22;;;;;;;23.27;14.10;;;13.30;91.00;;;;;;5073294;28;20235;-94
2022/11/11 03:53:49;;;;;;;22.50;14.27;;;13.30;91.30;;;;;;5070107;28;20213;-93
2022/11/11 03:56:36;;;;;;;20.43;12.43;;;13.30;91.20;;;;;;5071141;28;20198;-94
2022/11/11 03:59:06;;;;;;;24.43;13.90;;;13.30;91.40;;;;;;5075128;28;20207;-94
2022/11/11 04:21:42;;;;;;;24.63;13.90;;;13.20;91.10;;;;;;5066835;28;20236;-93
2022/11/11 04:25:47;;;;;;;20.40;13.60;;;13.20;91.10;;;;;;5077166;28;20226;-93
2022/11/11 04:26:50;;;;;;;20.93;13.03;;;13.10;91.30;;;;;;5073610;28;20303;-93
2022/11/11 04:29:33;;;;;;;20.90;13.73;;;13.10;91.10;;;;;;5072714;28;20213;-93
2022/11/11 04:34:50;;;;;;;21.43;13.57;;;13.20;91.20;;;;;;5068550;28;20211;-93
2022/11/11 04:37:27;;;;;;;19.50;12.63;;;13.20;91.00;;;;;;5066861;28;20232;-93
2022/11/11 04:42:46;;;;;;;22.23;13.80;;;13.10;91.00;;;;;;5086647;28;20230;-94
2022/11/11 04:45:39;;;;;;;26.67;13.90;;;13.10;91.10;;;;;;5068946;28;20192;-93
2022/11/11 04:48:12;;;;;;;25.83;13.67;;;13.10;91.20;;;;;;5076523;28;20199;-93
2022/11/11 04:50:47;;;;;;;21.90;13.87;;;13.10;91.30;;;;;;5083001;28;20793;-94
2022/11/11 04:53:22;;;;;;;20.90;12.60;;;13.00;91.20;;;;;;5080370;28;20261;-93
2022/11/11 04:58:45;;;;;;;21.70;13.93;;;13.00;91.30;;;;;;5090013;28;20198;-93
2022/11/11 05:03:14;;;;;;;19.67;12.77;;;13.00;91.30;;;;;;5075265;28;20205;-94
2022/11/11 05:04:25;;;;;;;23.60;14.20;;;13.00;91.20;;;;;;5087798;28;20254;-94
2022/11/11 05:09:51;;;;;;;18.90;13.03;;;13.00;91.20;;;;;;5081538;28;20214;-93
2022/11/11 05:12:38;;;;;;;20.10;13.30;;;13.00;91.30;;;;;;5082366;28;20316;-93
2022/11/11 05:21:35;;;;;;;26.00;14.90;;;12.90;91.10;;;;;;5086997;28;20217;-93
2022/11/11 05:26:54;;;;;;;22.40;14.10;;;12.90;91.40;;;;;;5038292;28;20202;-94
2022/11/11 05:29:29;;;;;;;24.90;14.37;;;12.80;91.40;;;;;;5080830;28;20288;-93
2022/11/11 05:32:05;;;;;;;25.07;14.20;;;12.80;91.40;;;;;;5080508;28;20304;-94
2022/11/11 05:34:36;;;;;;;27.50;14.83;;;12.80;91.40;;;;;;5083022;28;20199;-94
2022/11/11 05:37:04;;;;;;;24.33;16.40;;;12.80;91.60;;;;;;5060844;28;20204;-93
2022/11/11 05:39:47;;;;;;;29.00;16.43;;;12.80;91.70;;;;;;5080362;28;20197;-93
2022/11/11 05:42:17;;;;;;;27.53;16.50;;;12.80;91.90;;;;;;5080160;28;20210;-94
2022/11/11 05:44:54;;;;;;;22.77;16.03;;;12.80;91.80;;;;;;5083623;28;20201;-94
2022/11/11 05:47:24;;;;;;;26.77;16.97;;;12.80;91.70;;;;;;5078418;28;20997;-91
2022/11/11 05:50:26;;;;;;;24.57;16.17;;;12.80;91.70;;;;;;5060525;28;20234;-93
2022/11/11 05:52:58;;;;;;;30.17;17.77;;;12.80;91.90;;;;;;5064407;28;20229;-93
2022/11/11 05:55:34;;;;;;;31.77;18.40;;;12.80;91.70;;;;;;5062193;28;20206;-93
2022/11/11 05:58:08;;;;;;;26.20;16.57;;;12.90;91.70;;;;;;5078492;28;20207;-93
2022/11/11 06:00:39;;;;;;;30.43;17.93;;;12.90;91.90;;;;;;5075683;28;20213;-94
2022/11/11 06:03:28;;;;;;;27.30;17.40;;;12.90;91.90;;;;;;5077769;28;20213;-93
2022/11/11 06:06:08;;;;;;;28.27;18.13;;;12.80;92.30;;;;;;5087202;28;20200;-93
2022/11/11 06:08:51;;;;;;;34.00;19.13;;;12.90;92.10;;;;;;5091778;28;20199;-94
2022/11/11 06:11:24;;;;;;;33.00;20.27;;;12.90;91.90;;;;;;5073459;28;20225;-94
2022/11/11 06:13:56;;;;;;;35.03;18.83;;;12.90;91.90;;;;;;5071544;28;20201;-92
2022/11/11 06:16:23;;;;;;;32.70;18.80;;;12.90;91.80;;;;;;5083002;28;20229;-94
2022/11/11 06:18:52;;;;;;;26.07;18.80;;;12.90;91.80;;;;;;5072289;28;20194;-94
2022/11/11 06:21:21;;;;;;;39.23;20.47;;;12.90;91.80;;;;;;5077663;28;20207;-93
2022/11/11 06:23:55;;;;;;;33.27;18.63;;;12.90;91.90;;;;;;5080423;28;20198;-94
2022/11/11 06:26:29;;;;;;;27.30;19.13;;;12.90;92.00;;;;;;5087929;28;20202;-93
2022/11/11 06:28:58;;;;;;;36.17;19.77;;;12.90;92.00;;;;;;5078688;28;20208;-93
2022/11/11 06:31:29;;;;;;;39.00;20.20;;;12.90;91.80;;;;;;5075308;28;20216;-93
2022/11/11 06:34:01;;;;;;;27.40;19.10;;;12.90;92.00;;;;;;5077050;28;20218;-93
2022/11/11 06:36:42;;;;;;;35.33;20.37;;;12.90;92.00;;;;;;5081235;28;20226;-93
2022/11/11 06:39:16;;;;;;;28.10;17.63;;;12.90;92.00;;;;;;5074191;28;20204;-94
2022/11/11 06:41:49;;;;;;;31.60;17.87;;;12.90;91.90;;;;;;5076386;28;20287;-95
2022/11/11 06:44:24;;;;;;;26.10;17.17;;;12.90;91.80;;;;;;5072246;28;20202;-92
2022/11/11 06:46:52;;;;;;;35.70;19.43;;;12.90;92.10;;;;;;5075833;28;20204;-93
2022/11/11 06:49:24;;;;;;;28.57;17.07;;;12.90;91.80;;;;;;5072279;28;20272;-95
2022/11/11 06:52:00;;;;;;;36.27;19.37;;;12.90;91.80;;;;;;5072319;28;20287;-93
2022/11/11 06:54:31;;;;;;;35.00;19.50;;;12.90;92.00;;;;;;5069822;28;20206;-94
2022/11/11 06:57:00;;;;;;;33.03;20.57;;;12.90;92.20;;;;;;5059391;28;20232;-93
2022/11/11 06:59:30;;;;;;;34.90;20.07;;;12.90;91.80;;;;;;5062228;28;20205;-93
2022/11/11 07:02:08;;;;;;;35.80;20.40;;;12.90;91.90;;;;;;5068020;28;20283;-90
2022/11/11 07:04:38;;;;;;;30.47;18.27;;;12.90;92.00;;;;;;5067058;28;20198;-91
2022/11/11 07:07:11;;;;;;;33.27;18.53;;;12.90;92.10;;;;;;5065764;28;20203;-92
2022/11/11 07:09:46;;;;;;;28.03;18.47;;;12.80;92.20;;;;;;5072038;28;20796;-90
2022/11/11 07:12:16;;;;;;;27.93;16.80;;;12.80;92.20;;;;;;5077234;28;20230;-92
2022/11/11 07:14:43;;;;;;;30.37;17.73;;;12.80;92.10;;;;;;5079542;28;20229;-91
2022/11/11 07:17:12;;;;;;;28.77;17.53;;;12.80;92.10;;;;;;5084425;28;20644;-91
2022/11/11 07:19:40;;;;;;;28.10;16.27;;;12.80;92.30;;;;;;5076094;28;20567;-92
2022/11/11 07:22:14;;;;;;;25.67;15.47;;;12.80;92.10;;;;;;5068739;28;20208;-90
2022/11/11 07:24:42;;;;;;;21.40;14.67;;;12.80;92.20;;;;;;5080479;28;20620;-92
2022/11/11 07:27:09;;;;;;;28.37;16.47;;;12.80;92.10;;;;;;5075424;28;20201;-91
2022/11/11 07:29:43;;;;;;;23.43;16.10;;;12.80;92.10;;;;;;5078557;28;20203;-91
2022/11/11 07:32:12;;;;;;;31.87;16.70;;;12.80;92.20;;;;;;5083915;28;20254;-93
2022/11/11 07:34:39;;;;;;;33.77;17.40;;;12.80;92.20;;;;;;5075130;28;20215;-90
2022/11/11 07:37:08;;;;;;;24.83;16.20;;;12.80;92.00;;;;;;5080316;28;20208;-92
2022/11/11 07:39:43;;;;;;;27.73;16.33;;;12.80;92.10;;;;;;5084295;28;20234;-92
2022/11/11 07:42:20;;;;;;;26.90;16.60;;;12.80;92.20;;;;;;5094414;28;20203;-92
2022/11/11 07:44:59;;;;;;;27.60;16.00;;;12.80;92.40;;;;;;5094410;28;20204;-91
2022/11/11 07:47:33;;;;;;;34.13;17.60;;;12.80;92.60;;;;;;5087682;28;20265;-91
2022/11/11 07:50:06;;;;;;;24.37;16.13;;;12.80;92.50;;;;;;5093847;28;20206;-91
2022/11/11 07:52:36;;;;;;;27.03;16.37;;;12.90;92.60;;;;;;5076568;28;20254;-90
2022/11/11 07:55:07;;;;;;;23.73;16.27;;;12.80;92.60;;;;;;5096484;28;20207;-91
2022/11/11 07:57:36;;;;;;;27.33;16.43;;;12.90;92.60;;;;;;5097104;28;20196;-90
2022/11/11 08:00:16;;;;;;;28.57;16.73;;;12.90;92.50;;;;;;5088804;28;20197;-92
2022/11/11 08:02:47;;;;;;;26.87;16.37;;;12.90;92.50;;;;;;5084737;28;20663;-89
2022/11/11 08:05:20;;;;;;;23.33;14.93;;;12.90;92.30;;;;;;5075534;28;20204;-92
2022/11/11 08:07:53;;;;;;;26.67;15.77;;;12.90;92.30;;;;;;5085093;28;20199;-92
2022/11/11 08:10:28;;;;;;;26.00;15.70;;;12.90;92.30;;;;;;5076288;28;20203;-90
2022/11/11 08:15:44;;;;;;;26.10;15.77;;;12.90;92.00;;;;;;5069482;28;20307;-91
2022/11/11 08:18:13;;;;;;;28.60;16.60;;;12.90;92.20;;;;;;5061646;28;20208;-91
2022/11/11 08:20:41;;;;;;;27.60;17.00;;;12.90;92.20;;;;;;5071970;28;20219;-90
2022/11/11 08:23:09;;;;;;;29.97;17.97;;;12.90;92.10;;;;;;5073897;28;20210;-91
2022/11/11 08:25:39;;;;;;;34.33;19.37;;;12.90;92.10;;;;;;5073656;28;20659;-91
2022/11/11 08:28:08;;;;;;;33.37;19.20;;;12.90;92.20;;;;;;5069360;28;20200;-91
2022/11/11 08:30:35;;;;;;;31.73;18.17;;;12.90;92.10;;;;;;5061900;28;20268;-91
2022/11/11 08:33:03;;;;;;;26.57;16.83;;;12.90;92.00;;;;;;5055710;28;20240;-91
2022/11/11 08:35:32;;;;;;;30.17;17.00;;;12.90;92.10;;;;;;5065113;28;20203;-91
2022/11/11 08:38:01;;;;;;;28.87;18.13;;;12.90;92.10;;;;;;5065982;28;20252;-91
2022/11/11 08:40:29;;;;;;;29.93;16.90;;;12.90;92.20;;;;;;5066311;28;20197;-91
2022/11/11 08:42:59;;;;;;;30.47;17.33;;;12.90;92.30;;;;;;5061016;28;20203;-91
2022/11/11 08:45:27;;;;;;;34.10;18.50;;;12.90;92.20;;;;;;5072470;28;20259;-91
2022/11/11 08:47:57;;;;;;;32.10;17.50;;;12.90;92.20;;;;;;5071642;28;20207;-91
2022/11/11 08:50:26;;;;;;;26.40;16.00;;;13.00;92.40;;;;;;5072748;28;20207;-92
2022/11/11 08:52:53;;;;;;;32.90;18.27;;;13.00;92.20;;;;;;5071191;28;20266;-91
2022/11/11 08:55:23;;;;;;;22.97;15.13;;;13.00;92.10;;;;;;5073938;28;20741;-91
2022/11/11 08:58:03;;;;;;;26.50;16.60;;;13.00;91.90;;;;;;5065396;28;20214;-91
2022/11/11 09:00:30;;;;;;;25.40;16.37;;;13.00;91.90;;;;;;5064275;28;20208;-92
2022/11/11 09:03:12;;;;;;;22.00;14.97;;;13.00;91.80;;;;;;5056324;28;20192;-91
2022/11/11 09:05:40;;;;;;;28.10;16.90;;;13.00;91.90;;;;;;5057394;28;20640;-92
2022/11/11 09:08:12;;;;;;;26.97;16.03;;;13.00;91.80;;;;;;5058248;28;20197;-91
2022/11/11 09:10:46;;;;;;;28.83;17.57;;;13.00;91.90;;;;;;5060487;28;20576;-91
2022/11/11 09:13:16;;;;;;;28.23;16.10;;;13.00;91.90;;;;;;5072866;28;20270;-91
2022/11/11 09:15:43;;;;;;;25.07;16.83;;;13.00;91.90;;;;;;5071366;28;20225;-92
2022/11/11 09:18:13;;;;;;;26.83;16.50;;;13.00;91.70;;;;;;5062005;28;20205;-92
2022/11/11 09:20:44;;;;;;;29.70;16.93;;;13.00;91.90;;;;;;5055417;28;20263;-93
2022/11/11 09:23:11;;;;;;;22.73;14.20;;;13.00;91.90;;;;;;5061518;28;20204;-92
2022/11/11 09:25:42;;;;;;;25.83;14.80;;;13.00;91.70;;;;;;5065135;28;20200;-92
2022/11/11 09:28:15;;;;;;;25.37;15.07;;;13.00;91.60;;;;;;5071416;28;20211;-93
2022/11/11 09:30:44;;;;;;;24.30;14.97;;;13.10;91.50;;;;;;5064046;28;20199;-91
2022/11/11 09:33:15;;;;;;;27.20;14.90;;;13.10;91.50;;;;;;5067135;28;20258;-92
2022/11/11 09:35:42;;;;;;;23.77;14.10;;;13.10;91.70;;;;;;5061645;28;20231;-91
2022/11/11 09:38:14;;;;;;;24.10;14.70;;;13.10;91.80;;;;;;5067972;28;20225;-92
2022/11/11 09:40:52;;;;;;;22.53;15.00;;;13.10;91.70;;;;;;5076058;28;20221;-92
2022/11/11 09:43:32;;;;;;;20.07;12.90;;;13.10;91.70;;;;;;5082423;28;20225;-92
2022/11/11 09:46:17;;;;;;;27.60;14.27;;;13.10;91.70;;;;;;5075639;28;20201;-92
2022/11/11 09:49:20;;;;;;;26.53;14.77;;;13.20;91.90;;;;;;5074978;28;20252;-92
2022/11/11 09:51:52;;;;;;;22.13;14.07;;;13.20;91.70;;;;;;5077928;28;20229;-93
2022/11/11 09:54:30;;;;;;;21.90;14.57;;;13.20;91.60;;;;;;5076109;28;20230;-92
2022/11/11 09:57:02;;;;;;;25.37;14.80;;;13.20;91.20;;;;;;5063244;28;20807;-91
2022/11/11 09:59:40;;;;;;;24.10;13.83;;;13.20;91.20;;;;;;5057597;28;20604;-93
2022/11/11 10:02:19;;;;;;;25.93;14.47;;;13.20;91.20;;;;;;5056999;28;20242;-92
2022/11/11 10:04:57;;;;;;;19.13;11.47;;;13.30;91.20;;;;;;5057017;28;20641;-92
2022/11/11 10:07:35;;;;;;;19.43;12.40;;;13.20;91.20;;;;;;5058930;28;20200;-92
2022/11/11 10:10:11;;;;;;;18.20;12.43;;;13.30;91.40;;;;;;5088252;28;20262;-90
2022/11/11 10:12:48;;;;;;;23.37;12.90;;;13.30;91.60;;;;;;5066663;28;20598;-94
2022/11/11 10:15:18;;;;;;;19.50;12.13;;;13.30;91.40;;;;;;5057854;28;20238;-92
2022/11/11 10:18:25;;;;;;;22.20;13.27;;;13.30;91.30;;;;;;5065158;28;20234;-91
2022/11/11 10:21:01;;;;;;;18.97;12.90;;;13.40;91.30;;;;;;5052729;28;20670;-92
2022/11/11 10:23:32;;;;;;;25.03;13.90;;;13.40;91.20;;;;;;5074556;28;20203;-92
2022/11/11 10:26:07;;;;;;;17.70;12.27;;;13.40;91.20;;;;;;5063705;28;20213;-92
2022/11/11 10:28:37;;;;;;;21.20;12.73;;;13.50;91.30;;;;;;5070807;28;20207;-92
2022/11/11 10:31:13;;;;;;;20.40;11.47;;;13.50;91.50;;;;;;5059933;28;20546;-93
2022/11/11 10:33:55;;;;;;;17.57;11.87;;;13.50;91.40;;;;;;5062796;28;20232;-91
2022/11/11 10:36:26;;;;;;;24.57;13.33;;;13.60;91.50;;;;;;5076389;28;20203;-92
2022/11/11 10:38:58;;;;;;;20.47;11.90;;;13.70;91.30;;;;;;5071935;28;20262;-91
2022/11/11 10:41:35;;;;;;;17.33;10.77;;;13.80;91.50;;;;;;5056466;28;20226;-92
2022/11/11 10:44:19;;;;;;;19.60;11.90;;;13.90;91.70;;;;;;5065379;28;20219;-91
2022/11/11 10:46:59;;;;;;;19.23;10.10;;;13.90;91.50;;;;;;5065386;28;20676;-91
2022/11/11 10:49:33;;;;;;;18.13;9.83;;;14.00;91.50;;;;;;5059526;28;20767;-92
2022/11/11 10:52:08;;;;;;;20.17;9.77;;;14.20;91.00;;;;;;5063201;28;20199;-92
2022/11/11 10:54:40;;;;;;;16.57;9.80;;;14.30;91.10;;;;;;5065872;28;20239;-92
2022/11/11 10:57:15;;;;;;;19.63;10.47;;;14.40;91.40;;;;;;5050370;28;20203;-92
2022/11/11 11:00:27;;;;;;;11.50;7.97;;;14.60;91.20;;;;;;5054681;28;20210;-96
2022/11/11 11:03:02;;;;;;;15.80;8.60;;;14.80;91.00;;;;;;5055044;28;20252;-91
2022/11/11 11:05:39;;;;;;;18.87;10.40;;;15.00;90.90;;;;;;5056605;28;20207;-92
2022/11/11 11:08:16;;;;;;;17.57;9.90;;;15.10;89.50;;;;;;5053757;28;20281;-92
2022/11/11 11:10:49;;;;;;;15.50;9.17;;;15.30;90.00;;;;;;5060738;28;20203;-92
2022/11/11 11:13:21;;;;;;;14.73;8.50;;;15.40;90.10;;;;;;5067744;28;20316;-90
2022/11/11 11:16:05;;;;;;;16.67;8.47;;;15.60;89.10;;;;;;5059682;28;20976;-92
2022/11/11 11:18:32;;;;;;;15.57;8.63;;;15.80;88.40;;;;;;5067934;28;20204;-91
2022/11/11 11:21:03;;;;;;;18.83;9.30;;;15.90;89.40;;;;;;5060208;28;20216;-92
2022/11/11 11:23:40;;;;;;;19.43;8.70;;;16.10;88.00;;;;;;5062957;28;20287;-91
2022/11/11 11:26:09;;;;;;;14.37;8.13;;;16.20;86.20;;;;;;5051318;28;20209;-91
2022/11/11 11:28:53;;;;;;;14.77;8.03;;;16.40;84.20;;;;;;5061330;28;20298;-91
2022/11/11 11:31:37;;;;;;;17.67;7.83;;;16.50;82.50;;;;;;5049496;28;20244;-91
2022/11/11 11:34:05;;;;;;;17.30;8.80;;;16.60;81.80;;;;;;5052779;28;20225;-92
2022/11/11 11:36:36;;;;;;;16.87;8.73;;;16.70;82.80;;;;;;5066846;28;20243;-92
2022/11/11 11:39:04;;;;;;;16.20;8.07;;;16.90;80.80;;;;;;5069135;28;20203;-92
2022/11/11 11:41:39;;;;;;;17.83;8.60;;;17.00;80.80;;;;;;5069715;28;20217;-90
2022/11/11 11:44:25;;;;;;;11.90;7.30;;;17.10;79.10;;;;;;5068063;28;20629;-90
2022/11/11 11:46:58;;;;;;;15.63;8.00;;;17.20;78.10;;;;;;5073866;28;20209;-91
2022/11/11 11:49:39;;;;;;;18.07;7.93;;;17.20;78.70;;;;;;5072685;28;20251;-91
2022/11/11 11:52:15;;;;;;;12.77;7.03;;;17.30;77.80;;;;;;5063387;28;20199;-90
2022/11/11 11:54:56;;;;;;;15.27;7.80;;;17.40;78.50;;;;;;5070804;28;20241;-91
2022/11/11 11:57:40;;;;;;;16.53;8.03;;;17.40;77.00;;;;;;5068844;28;20202;-91
2022/11/11 12:00:16;;;;;;;17.00;7.77;;;17.40;75.70;;;;;;5062547;28;20246;-91
2022/11/11 12:03:09;;;;;;;15.47;7.77;;;17.40;74.90;;;;;;5055011;28;20647;-91
2022/11/11 12:05:42;;;;;;;15.23;7.47;;;17.50;74.30;;;;;;5065554;28;20200;-91
2022/11/11 12:08:26;;;;;;;16.77;7.97;;;17.50;75.60;;;;;;5055053;28;20614;-90
2022/11/11 12:11:02;;;;;;;26.43;9.63;;;17.50;75.50;;;;;;5062989;28;20202;-92
2022/11/11 12:13:39;;;;;;;14.43;7.33;;;17.50;75.70;;;;;;5068758;28;20230;-91
2022/11/11 12:16:23;;;;;;;13.40;7.23;;;17.60;76.00;;;;;;5068047;28;20269;-91
2022/11/11 12:19:06;;;;;;;19.37;9.27;;;17.70;76.40;;;;;;5067129;28;20214;-90
2022/11/11 12:21:48;;;;;;;13.63;7.60;;;17.80;76.00;;;;;;5068497;28;20247;-91
2022/11/11 12:24:34;;;;;;;10.37;7.23;;;17.90;75.50;;;;;;5086718;28;20226;-91
2022/11/11 12:27:18;;;;;;;9.03;6.50;;;18.00;74.20;;;;;;5095830;28;20210;-92
2022/11/11 12:30:01;;;;;;;10.80;6.23;;;18.10;74.30;;;;;;5077887;28;20217;-92
2022/11/11 12:33:03;;;;;;;10.77;6.60;;;18.10;74.50;;;;;;5089402;28;20222;-92
2022/11/11 12:36:04;;;;;;;10.90;6.23;;;18.30;74.00;;;;;;5081562;28;20297;-91
2022/11/11 12:38:50;;;;;;;11.67;6.60;;;18.40;74.40;;;;;;5079276;28;20206;-91
2022/11/11 12:41:33;;;;;;;15.23;7.07;;;18.50;74.30;;;;;;5080253;28;20186;-93
2022/11/11 12:50:18;;;;;;;7.33;5.13;;;18.80;72.90;;;;;;5035977;28;20230;-93
2022/11/11 12:53:04;;;;;;;13.50;6.83;;;18.90;72.40;;;;;;5015434;28;20233;-91
2022/11/11 12:55:40;;;;;;;11.23;5.70;;;18.90;72.10;;;;;;5028998;28;20607;-93
2022/11/11 12:58:35;;;;;;;9.50;5.67;;;19.00;71.60;;;;;;5029298;28;20234;-92
2022/11/11 13:01:36;;;;;;;9.80;5.90;;;19.00;70.60;;;;;;5019892;28;20233;-90
2022/11/11 13:08:10;;;;;;;13.57;6.63;;;19.00;69.40;;;;;;5026789;28;20208;-91
2022/11/11 13:10:46;;;;;;;12.17;6.70;;;19.00;68.90;;;;;;5012000;28;20188;-91
2022/11/11 13:13:55;;;;;;;9.13;5.97;;;19.00;69.20;;;;;;5005904;28;20208;-91
2022/11/11 13:16:30;;;;;;;8.93;5.17;;;19.00;67.90;;;;;;5028616;28;20252;-91
2022/11/11 13:19:15;;;;;;;9.30;5.67;;;18.90;69.40;;;;;;5027382;28;20226;-92
2022/11/11 13:21:48;;;;;;;12.80;5.87;;;18.90;67.90;;;;;;5028279;28;20221;-93
2022/11/11 13:24:19;;;;;;;11.00;5.33;;;18.90;68.50;;;;;;5029168;28;20235;-91
2022/11/11 13:27:00;;;;;;;8.67;4.87;;;18.80;68.70;;;;;;5031899;28;20209;-92
2022/11/11 13:30:08;;;;;;;7.30;4.57;;;18.70;67.80;;;;;;5021792;28;20673;-91
2022/11/11 13:32:45;;;;;;;10.00;4.83;;;18.60;67.40;;;;;;4980955;28;20233;-92
2022/11/11 13:35:22;;;;;;;10.43;4.83;;;18.60;68.10;;;;;;5024356;28;20231;-92
2022/11/11 13:37:52;;;;;;;14.37;6.33;;;18.60;68.40;;;;;;5022060;28;20208;-92
2022/11/11 13:40:35;;;;;;;13.07;6.40;;;18.50;68.90;;;;;;5017293;28;20249;-92
2022/11/11 13:43:06;;;;;;;10.43;5.20;;;18.40;68.50;;;;;;5017757;28;20205;-92
2022/11/11 13:45:37;;;;;;;11.63;6.20;;;18.40;69.20;;;;;;5019068;28;20635;-92
2022/11/11 13:48:22;;;;;;;10.53;5.30;;;18.40;68.90;;;;;;5023428;28;20220;-92
2022/11/11 13:50:49;;;;;;;10.80;6.20;;;18.30;68.60;;;;;;5015303;28;20197;-92
2022/11/11 13:53:27;;;;;;;8.93;5.00;;;18.30;69.50;;;;;;5028331;28;20213;-92
2022/11/11 13:56:02;;;;;;;11.30;6.37;;;18.30;69.00;;;;;;5029463;28;20217;-92
2022/11/11 13:58:37;;;;;;;9.03;5.60;;;18.20;68.80;;;;;;5029905;28;20205;-93
2022/11/11 14:01:11;;;;;;;9.77;5.70;;;18.10;68.90;;;;;;5017228;28;20203;-93
2022/11/11 14:04:00;;;;;;;9.83;6.30;;;18.10;69.00;;;;;;5031623;28;20211;-91
2022/11/11 14:07:00;;;;;;;10.10;5.73;;;18.00;68.70;;;;;;5032052;28;20211;-92
2022/11/11 14:10:07;;;;;;;10.53;5.77;;;18.00;69.00;;;;;;5032481;28;20399;-93
2022/11/11 14:12:52;;;;;;;9.07;5.40;;;17.90;69.10;;;;;;5031407;28;20194;-93
2022/11/11 14:15:40;;;;;;;10.07;6.13;;;17.90;69.10;;;;;;5031082;28;20231;-92
2022/11/11 14:18:36;;;;;;;12.40;5.30;;;17.80;69.30;;;;;;5031189;28;20279;-91
2022/11/11 14:21:08;;;;;;;8.67;5.97;;;17.80;69.60;;;;;;5031671;28;20228;-92
2022/11/11 14:23:43;;;;;;;10.60;6.50;;;17.70;70.10;;;;;;5030451;28;20213;-93
2022/11/11 14:26:33;;;;;;;13.00;6.73;;;17.70;69.80;;;;;;5031647;28;20217;-93